sensor_id;sensor_type;location;lat;lon;timestamp;P1;durP1;ratioP1;P2;durP2;ratioP2
22024;SDS011;11176;51.448;6.650;2023-05-29T00:02:02;5.15;;;2.60;;
22024;SDS011;11176;51.448;6.650;2023-05-29T00:04:28;5.95;;;2.67;;
22024;SDS011;11176;51.448;6.650;2023-05-29T00:06:55;4.78;;;2.53;;
22024;SDS011;11176;51.448;6.650;2023-05-29T00:09:22;5.50;;;2.70;;
22024;SDS011;11176;51.448;6.650;2023-05-29T00:11:48;5.55;;;2.60;;
22024;SDS011;11176;51.448;6.650;2023-05-29T00:14:19;6.45;;;2.50;;
22024;SDS011;11176;51.448;6.650;2023-05-29T00:16:46;4.30;;;2.63;;
22024;SDS011;11176;51.448;6.650;2023-05-29T00:19:16;6.93;;;2.75;;
22024;SDS011;11176;51.448;6.650;2023-05-29T00:21:43;4.88;;;2.70;;
22024;SDS011;11176;51.448;6.650;2023-05-29T00:24:10;4.25;;;2.63;;
22024;SDS011;11176;51.448;6.650;2023-05-29T00:26:37;6.03;;;3.33;;
22024;SDS011;11176;51.448;6.650;2023-05-29T00:29:03;7.05;;;2.88;;
22024;SDS011;11176;51.448;6.650;2023-05-29T00:31:32;4.82;;;2.75;;
22024;SDS011;11176;51.448;6.650;2023-05-29T00:33:58;4.50;;;2.58;;
22024;SDS011;11176;51.448;6.650;2023-05-29T00:36:25;6.25;;;3.25;;
22024;SDS011;11176;51.448;6.650;2023-05-29T00:38:52;6.43;;;3.10;;
22024;SDS011;11176;51.448;6.650;2023-05-29T00:41:19;7.82;;;3.13;;
22024;SDS011;11176;51.448;6.650;2023-05-29T00:43:45;5.43;;;2.90;;
22024;SDS011;11176;51.448;6.650;2023-05-29T00:46:12;6.18;;;3.33;;
22024;SDS011;11176;51.448;6.650;2023-05-29T00:48:41;4.70;;;2.80;;
22024;SDS011;11176;51.448;6.650;2023-05-29T00:51:09;7.72;;;3.13;;
22024;SDS011;11176;51.448;6.650;2023-05-29T00:53:38;6.97;;;3.40;;
22024;SDS011;11176;51.448;6.650;2023-05-29T00:56:08;6.75;;;3.10;;
22024;SDS011;11176;51.448;6.650;2023-05-29T00:58:36;7.03;;;2.95;;
22024;SDS011;11176;51.448;6.650;2023-05-29T01:01:03;5.63;;;3.08;;
22024;SDS011;11176;51.448;6.650;2023-05-29T01:03:30;7.07;;;3.30;;
22024;SDS011;11176;51.448;6.650;2023-05-29T01:05:58;6.43;;;3.47;;
22024;SDS011;11176;51.448;6.650;2023-05-29T01:08:25;6.95;;;3.38;;
22024;SDS011;11176;51.448;6.650;2023-05-29T01:10:52;8.48;;;3.38;;
22024;SDS011;11176;51.448;6.650;2023-05-29T01:13:23;7.32;;;3.22;;
22024;SDS011;11176;51.448;6.650;2023-05-29T01:18:51;5.35;;;2.97;;
22024;SDS011;11176;51.448;6.650;2023-05-29T01:27:09;9.73;;;3.30;;
22024;SDS011;11176;51.448;6.650;2023-05-29T01:29:37;6.88;;;2.65;;
22024;SDS011;11176;51.448;6.650;2023-05-29T01:32:06;8.35;;;2.92;;
22024;SDS011;11176;51.448;6.650;2023-05-29T01:34:34;9.40;;;3.00;;
22024;SDS011;11176;51.448;6.650;2023-05-29T01:37:00;10.55;;;2.67;;
22024;SDS011;11176;51.448;6.650;2023-05-29T01:39:28;9.40;;;2.78;;
22024;SDS011;11176;51.448;6.650;2023-05-29T01:41:57;12.52;;;3.38;;
22024;SDS011;11176;51.448;6.650;2023-05-29T01:44:25;7.40;;;2.90;;
22024;SDS011;11176;51.448;6.650;2023-05-29T01:46:53;9.68;;;3.10;;
22024;SDS011;11176;51.448;6.650;2023-05-29T01:49:20;8.25;;;3.20;;
22024;SDS011;11176;51.448;6.650;2023-05-29T01:51:49;7.90;;;2.80;;
22024;SDS011;11176;51.448;6.650;2023-05-29T01:54:16;6.13;;;2.65;;
22024;SDS011;11176;51.448;6.650;2023-05-29T01:56:43;10.40;;;2.78;;
22024;SDS011;11176;51.448;6.650;2023-05-29T01:59:12;8.73;;;2.85;;
22024;SDS011;11176;51.448;6.650;2023-05-29T02:01:39;13.18;;;3.65;;
22024;SDS011;11176;51.448;6.650;2023-05-29T02:04:06;12.00;;;3.00;;
22024;SDS011;11176;51.448;6.650;2023-05-29T02:06:33;10.85;;;3.30;;
22024;SDS011;11176;51.448;6.650;2023-05-29T02:09:00;11.77;;;3.58;;
22024;SDS011;11176;51.448;6.650;2023-05-29T02:11:27;18.02;;;3.58;;
22024;SDS011;11176;51.448;6.650;2023-05-29T02:13:53;11.48;;;3.47;;
22024;SDS011;11176;51.448;6.650;2023-05-29T02:16:20;11.52;;;3.40;;
22024;SDS011;11176;51.448;6.650;2023-05-29T02:18:47;11.93;;;3.00;;
22024;SDS011;11176;51.448;6.650;2023-05-29T02:21:14;9.25;;;2.80;;
22024;SDS011;11176;51.448;6.650;2023-05-29T02:23:42;11.52;;;2.80;;
22024;SDS011;11176;51.448;6.650;2023-05-29T02:26:09;10.88;;;2.60;;
22024;SDS011;11176;51.448;6.650;2023-05-29T02:28:36;12.95;;;3.40;;
22024;SDS011;11176;51.448;6.650;2023-05-29T02:31:04;11.05;;;2.97;;
22024;SDS011;11176;51.448;6.650;2023-05-29T02:33:31;11.93;;;3.20;;
22024;SDS011;11176;51.448;6.650;2023-05-29T02:35:58;12.38;;;3.00;;
22024;SDS011;11176;51.448;6.650;2023-05-29T02:38:24;12.88;;;3.30;;
22024;SDS011;11176;51.448;6.650;2023-05-29T02:40:50;8.88;;;2.88;;
22024;SDS011;11176;51.448;6.650;2023-05-29T02:43:17;9.57;;;3.10;;
22024;SDS011;11176;51.448;6.650;2023-05-29T02:45:43;13.55;;;3.25;;
22024;SDS011;11176;51.448;6.650;2023-05-29T02:48:10;12.85;;;3.08;;
22024;SDS011;11176;51.448;6.650;2023-05-29T02:50:36;13.48;;;3.10;;
22024;SDS011;11176;51.448;6.650;2023-05-29T02:53:03;12.60;;;3.58;;
22024;SDS011;11176;51.448;6.650;2023-05-29T02:55:30;8.85;;;2.70;;
22024;SDS011;11176;51.448;6.650;2023-05-29T02:57:58;10.70;;;2.80;;
22024;SDS011;11176;51.448;6.650;2023-05-29T03:00:27;10.25;;;3.05;;
22024;SDS011;11176;51.448;6.650;2023-05-29T03:02:57;13.45;;;3.30;;
22024;SDS011;11176;51.448;6.650;2023-05-29T03:05:24;13.05;;;3.45;;
22024;SDS011;11176;51.448;6.650;2023-05-29T03:07:52;11.35;;;3.20;;
22024;SDS011;11176;51.448;6.650;2023-05-29T03:10:18;11.98;;;3.47;;
22024;SDS011;11176;51.448;6.650;2023-05-29T03:12:45;11.65;;;3.28;;
22024;SDS011;11176;51.448;6.650;2023-05-29T03:15:12;10.20;;;3.53;;
22024;SDS011;11176;51.448;6.650;2023-05-29T03:17:38;15.70;;;3.03;;
22024;SDS011;11176;51.448;6.650;2023-05-29T03:20:10;12.98;;;3.40;;
22024;SDS011;11176;51.448;6.650;2023-05-29T03:22:37;7.35;;;2.78;;
22024;SDS011;11176;51.448;6.650;2023-05-29T03:25:05;11.20;;;3.13;;
22024;SDS011;11176;51.448;6.650;2023-05-29T03:27:33;11.63;;;3.03;;
22024;SDS011;11176;51.448;6.650;2023-05-29T03:32:33;13.00;;;2.90;;
22024;SDS011;11176;51.448;6.650;2023-05-29T03:35:00;11.40;;;3.10;;
22024;SDS011;11176;51.448;6.650;2023-05-29T03:37:27;15.00;;;3.55;;
22024;SDS011;11176;51.448;6.650;2023-05-29T03:39:53;11.45;;;3.25;;
22024;SDS011;11176;51.448;6.650;2023-05-29T03:42:22;10.43;;;3.00;;
22024;SDS011;11176;51.448;6.650;2023-05-29T03:44:51;8.35;;;2.55;;
22024;SDS011;11176;51.448;6.650;2023-05-29T03:47:17;14.80;;;3.42;;
22024;SDS011;11176;51.448;6.650;2023-05-29T03:49:44;13.27;;;2.83;;
22024;SDS011;11176;51.448;6.650;2023-05-29T03:52:11;12.25;;;3.47;;
22024;SDS011;11176;51.448;6.650;2023-05-29T03:54:37;15.45;;;3.40;;
22024;SDS011;11176;51.448;6.650;2023-05-29T03:57:05;13.38;;;3.53;;
22024;SDS011;11176;51.448;6.650;2023-05-29T03:59:33;13.18;;;3.88;;
22024;SDS011;11176;51.448;6.650;2023-05-29T04:01:59;16.63;;;3.90;;
22024;SDS011;11176;51.448;6.650;2023-05-29T04:04:26;17.85;;;3.30;;
22024;SDS011;11176;51.448;6.650;2023-05-29T04:06:53;21.85;;;3.90;;
22024;SDS011;11176;51.448;6.650;2023-05-29T04:09:20;16.13;;;3.33;;
22024;SDS011;11176;51.448;6.650;2023-05-29T04:11:46;14.27;;;3.10;;
22024;SDS011;11176;51.448;6.650;2023-05-29T04:14:13;12.45;;;3.33;;
22024;SDS011;11176;51.448;6.650;2023-05-29T04:16:40;13.88;;;3.13;;
22024;SDS011;11176;51.448;6.650;2023-05-29T04:19:06;14.18;;;3.70;;
22024;SDS011;11176;51.448;6.650;2023-05-29T04:21:33;12.52;;;3.10;;
22024;SDS011;11176;51.448;6.650;2023-05-29T04:24:01;13.50;;;3.33;;
22024;SDS011;11176;51.448;6.650;2023-05-29T04:26:27;12.98;;;3.17;;
22024;SDS011;11176;51.448;6.650;2023-05-29T04:28:54;17.17;;;3.65;;
22024;SDS011;11176;51.448;6.650;2023-05-29T04:31:24;18.02;;;3.60;;
22024;SDS011;11176;51.448;6.650;2023-05-29T04:33:53;11.10;;;3.15;;
22024;SDS011;11176;51.448;6.650;2023-05-29T04:36:24;15.38;;;3.38;;
22024;SDS011;11176;51.448;6.650;2023-05-29T04:39:01;14.90;;;3.25;;
22024;SDS011;11176;51.448;6.650;2023-05-29T04:41:27;12.80;;;3.78;;
22024;SDS011;11176;51.448;6.650;2023-05-29T04:43:58;16.77;;;3.75;;
22024;SDS011;11176;51.448;6.650;2023-05-29T04:46:31;16.27;;;3.88;;
22024;SDS011;11176;51.448;6.650;2023-05-29T04:48:58;15.85;;;3.47;;
22024;SDS011;11176;51.448;6.650;2023-05-29T04:51:25;22.85;;;4.13;;
22024;SDS011;11176;51.448;6.650;2023-05-29T04:53:54;22.58;;;3.75;;
22024;SDS011;11176;51.448;6.650;2023-05-29T04:56:22;15.95;;;3.47;;
22024;SDS011;11176;51.448;6.650;2023-05-29T04:58:48;17.17;;;3.53;;
22024;SDS011;11176;51.448;6.650;2023-05-29T05:01:15;15.25;;;3.90;;
22024;SDS011;11176;51.448;6.650;2023-05-29T05:03:42;18.45;;;3.80;;
22024;SDS011;11176;51.448;6.650;2023-05-29T05:06:08;17.13;;;3.65;;
22024;SDS011;11176;51.448;6.650;2023-05-29T05:08:36;17.30;;;4.32;;
22024;SDS011;11176;51.448;6.650;2023-05-29T05:11:03;18.00;;;3.70;;
22024;SDS011;11176;51.448;6.650;2023-05-29T05:13:31;15.23;;;3.85;;
22024;SDS011;11176;51.448;6.650;2023-05-29T05:15:58;15.82;;;4.13;;
22024;SDS011;11176;51.448;6.650;2023-05-29T05:18:26;16.15;;;3.33;;
22024;SDS011;11176;51.448;6.650;2023-05-29T05:20:59;12.77;;;3.05;;
22024;SDS011;11176;51.448;6.650;2023-05-29T05:23:26;15.85;;;4.03;;
22024;SDS011;11176;51.448;6.650;2023-05-29T05:25:52;14.70;;;3.60;;
22024;SDS011;11176;51.448;6.650;2023-05-29T05:28:19;12.60;;;3.13;;
22024;SDS011;11176;51.448;6.650;2023-05-29T05:30:45;16.80;;;4.15;;
22024;SDS011;11176;51.448;6.650;2023-05-29T05:33:12;18.40;;;4.07;;
22024;SDS011;11176;51.448;6.650;2023-05-29T05:35:39;14.27;;;3.47;;
22024;SDS011;11176;51.448;6.650;2023-05-29T05:38:06;17.52;;;3.88;;
22024;SDS011;11176;51.448;6.650;2023-05-29T05:40:34;21.58;;;4.63;;
22024;SDS011;11176;51.448;6.650;2023-05-29T05:43:11;15.05;;;3.83;;
22024;SDS011;11176;51.448;6.650;2023-05-29T05:45:56;17.85;;;4.10;;
22024;SDS011;11176;51.448;6.650;2023-05-29T05:48:23;16.00;;;3.63;;
22024;SDS011;11176;51.448;6.650;2023-05-29T05:50:50;14.25;;;3.53;;
22024;SDS011;11176;51.448;6.650;2023-05-29T05:53:17;14.98;;;3.97;;
22024;SDS011;11176;51.448;6.650;2023-05-29T05:55:44;17.13;;;4.32;;
22024;SDS011;11176;51.448;6.650;2023-05-29T05:58:12;18.20;;;3.78;;
22024;SDS011;11176;51.448;6.650;2023-05-29T06:00:40;15.50;;;4.40;;
22024;SDS011;11176;51.448;6.650;2023-05-29T06:03:06;14.40;;;3.65;;
22024;SDS011;11176;51.448;6.650;2023-05-29T06:05:56;15.35;;;3.50;;
22024;SDS011;11176;51.448;6.650;2023-05-29T06:08:23;11.57;;;4.40;;
22024;SDS011;11176;51.448;6.650;2023-05-29T06:10:51;15.32;;;4.25;;
22024;SDS011;11176;51.448;6.650;2023-05-29T06:13:18;13.63;;;3.67;;
22024;SDS011;11176;51.448;6.650;2023-05-29T06:15:49;13.95;;;3.40;;
22024;SDS011;11176;51.448;6.650;2023-05-29T06:18:15;13.80;;;2.83;;
22024;SDS011;11176;51.448;6.650;2023-05-29T06:20:42;15.18;;;3.60;;
22024;SDS011;11176;51.448;6.650;2023-05-29T06:23:09;16.30;;;3.80;;
22024;SDS011;11176;51.448;6.650;2023-05-29T06:25:37;15.90;;;3.38;;
22024;SDS011;11176;51.448;6.650;2023-05-29T06:28:05;11.40;;;3.05;;
22024;SDS011;11176;51.448;6.650;2023-05-29T06:30:34;11.30;;;2.80;;
22024;SDS011;11176;51.448;6.650;2023-05-29T06:33:05;12.35;;;3.10;;
22024;SDS011;11176;51.448;6.650;2023-05-29T06:35:33;12.85;;;2.88;;
22024;SDS011;11176;51.448;6.650;2023-05-29T06:38:00;11.35;;;2.70;;
22024;SDS011;11176;51.448;6.650;2023-05-29T06:40:27;12.77;;;3.10;;
22024;SDS011;11176;51.448;6.650;2023-05-29T06:42:54;11.88;;;3.05;;
22024;SDS011;11176;51.448;6.650;2023-05-29T06:45:34;14.77;;;3.42;;
22024;SDS011;11176;51.448;6.650;2023-05-29T06:48:01;14.23;;;2.92;;
22024;SDS011;11176;51.448;6.650;2023-05-29T06:50:28;14.90;;;3.28;;
22024;SDS011;11176;51.448;6.650;2023-05-29T06:52:59;13.65;;;3.35;;
22024;SDS011;11176;51.448;6.650;2023-05-29T06:55:37;14.57;;;3.50;;
22024;SDS011;11176;51.448;6.650;2023-05-29T06:58:09;13.38;;;3.10;;
22024;SDS011;11176;51.448;6.650;2023-05-29T07:00:36;13.75;;;2.97;;
22024;SDS011;11176;51.448;6.650;2023-05-29T07:03:28;13.27;;;3.40;;
22024;SDS011;11176;51.448;6.650;2023-05-29T07:05:55;15.70;;;2.90;;
22024;SDS011;11176;51.448;6.650;2023-05-29T07:08:22;16.80;;;3.55;;
22024;SDS011;11176;51.448;6.650;2023-05-29T07:10:51;13.00;;;2.80;;
22024;SDS011;11176;51.448;6.650;2023-05-29T07:13:19;15.25;;;3.53;;
22024;SDS011;11176;51.448;6.650;2023-05-29T07:15:47;11.30;;;2.60;;
22024;SDS011;11176;51.448;6.650;2023-05-29T07:18:15;13.80;;;3.05;;
22024;SDS011;11176;51.448;6.650;2023-05-29T07:20:42;15.48;;;3.28;;
22024;SDS011;11176;51.448;6.650;2023-05-29T07:23:12;11.20;;;2.70;;
22024;SDS011;11176;51.448;6.650;2023-05-29T07:25:39;10.60;;;2.83;;
22024;SDS011;11176;51.448;6.650;2023-05-29T07:28:05;13.85;;;3.33;;
22024;SDS011;11176;51.448;6.650;2023-05-29T07:30:47;11.00;;;2.70;;
22024;SDS011;11176;51.448;6.650;2023-05-29T07:33:14;12.45;;;2.92;;
22024;SDS011;11176;51.448;6.650;2023-05-29T07:35:41;14.38;;;2.80;;
22024;SDS011;11176;51.448;6.650;2023-05-29T07:38:08;15.88;;;2.45;;
22024;SDS011;11176;51.448;6.650;2023-05-29T07:40:35;11.85;;;2.92;;
22024;SDS011;11176;51.448;6.650;2023-05-29T07:43:09;14.00;;;3.05;;
22024;SDS011;11176;51.448;6.650;2023-05-29T07:45:46;11.05;;;2.60;;
22024;SDS011;11176;51.448;6.650;2023-05-29T07:48:13;14.15;;;2.97;;
22024;SDS011;11176;51.448;6.650;2023-05-29T07:50:41;18.75;;;3.33;;
22024;SDS011;11176;51.448;6.650;2023-05-29T07:53:08;14.77;;;3.15;;
22024;SDS011;11176;51.448;6.650;2023-05-29T07:55:37;12.75;;;3.25;;
22024;SDS011;11176;51.448;6.650;2023-05-29T07:58:03;10.68;;;2.88;;
22024;SDS011;11176;51.448;6.650;2023-05-29T08:00:30;10.60;;;2.55;;
22024;SDS011;11176;51.448;6.650;2023-05-29T08:02:57;10.13;;;2.85;;
22024;SDS011;11176;51.448;6.650;2023-05-29T08:05:29;13.50;;;3.03;;
22024;SDS011;11176;51.448;6.650;2023-05-29T08:08:00;12.88;;;3.45;;
22024;SDS011;11176;51.448;6.650;2023-05-29T08:10:27;13.82;;;3.08;;
22024;SDS011;11176;51.448;6.650;2023-05-29T08:12:53;12.80;;;3.53;;
22024;SDS011;11176;51.448;6.650;2023-05-29T08:15:20;17.58;;;3.22;;
22024;SDS011;11176;51.448;6.650;2023-05-29T08:17:46;13.18;;;2.53;;
22024;SDS011;11176;51.448;6.650;2023-05-29T08:20:13;13.75;;;2.78;;
22024;SDS011;11176;51.448;6.650;2023-05-29T08:22:39;11.68;;;2.90;;
22024;SDS011;11176;51.448;6.650;2023-05-29T08:25:06;14.23;;;3.10;;
22024;SDS011;11176;51.448;6.650;2023-05-29T08:27:34;9.07;;;2.40;;
22024;SDS011;11176;51.448;6.650;2023-05-29T08:30:01;10.60;;;3.33;;
22024;SDS011;11176;51.448;6.650;2023-05-29T08:32:28;8.75;;;2.47;;
22024;SDS011;11176;51.448;6.650;2023-05-29T08:34:55;9.52;;;2.65;;
22024;SDS011;11176;51.448;6.650;2023-05-29T08:37:22;10.70;;;3.00;;
22024;SDS011;11176;51.448;6.650;2023-05-29T08:39:49;10.95;;;2.90;;
22024;SDS011;11176;51.448;6.650;2023-05-29T08:42:32;13.60;;;3.55;;
22024;SDS011;11176;51.448;6.650;2023-05-29T08:45:02;14.18;;;3.53;;
22024;SDS011;11176;51.448;6.650;2023-05-29T08:47:32;8.38;;;2.55;;
22024;SDS011;11176;51.448;6.650;2023-05-29T08:50:00;8.02;;;2.72;;
22024;SDS011;11176;51.448;6.650;2023-05-29T08:52:27;12.40;;;2.95;;
22024;SDS011;11176;51.448;6.650;2023-05-29T08:54:59;13.15;;;2.83;;
22024;SDS011;11176;51.448;6.650;2023-05-29T08:57:28;9.05;;;2.75;;
22024;SDS011;11176;51.448;6.650;2023-05-29T08:59:55;10.15;;;3.15;;
22024;SDS011;11176;51.448;6.650;2023-05-29T09:02:22;13.80;;;2.97;;
22024;SDS011;11176;51.448;6.650;2023-05-29T09:04:52;12.23;;;3.05;;
22024;SDS011;11176;51.448;6.650;2023-05-29T09:07:21;11.55;;;2.53;;
22024;SDS011;11176;51.448;6.650;2023-05-29T09:09:48;13.25;;;3.38;;
22024;SDS011;11176;51.448;6.650;2023-05-29T09:12:15;9.88;;;2.83;;
22024;SDS011;11176;51.448;6.650;2023-05-29T09:14:43;12.25;;;2.72;;
22024;SDS011;11176;51.448;6.650;2023-05-29T09:17:11;9.80;;;2.85;;
22024;SDS011;11176;51.448;6.650;2023-05-29T09:19:39;13.70;;;3.33;;
22024;SDS011;11176;51.448;6.650;2023-05-29T09:22:08;9.20;;;2.25;;
22024;SDS011;11176;51.448;6.650;2023-05-29T09:24:42;13.23;;;2.45;;
22024;SDS011;11176;51.448;6.650;2023-05-29T09:27:13;11.02;;;2.60;;
22024;SDS011;11176;51.448;6.650;2023-05-29T09:29:41;7.10;;;2.55;;
22024;SDS011;11176;51.448;6.650;2023-05-29T09:32:08;12.00;;;2.75;;
22024;SDS011;11176;51.448;6.650;2023-05-29T09:34:36;9.10;;;2.58;;
22024;SDS011;11176;51.448;6.650;2023-05-29T09:37:04;8.95;;;2.60;;
22024;SDS011;11176;51.448;6.650;2023-05-29T09:42:08;7.88;;;2.50;;
22024;SDS011;11176;51.448;6.650;2023-05-29T09:44:35;11.38;;;2.83;;
22024;SDS011;11176;51.448;6.650;2023-05-29T09:47:02;11.00;;;2.58;;
22024;SDS011;11176;51.448;6.650;2023-05-29T09:49:31;9.35;;;2.67;;
22024;SDS011;11176;51.448;6.650;2023-05-29T09:51:58;11.15;;;2.92;;
22024;SDS011;11176;51.448;6.650;2023-05-29T09:54:28;12.05;;;3.25;;
22024;SDS011;11176;51.448;6.650;2023-05-29T09:56:56;9.48;;;2.50;;
22024;SDS011;11176;51.448;6.650;2023-05-29T09:59:24;11.65;;;2.67;;
22024;SDS011;11176;51.448;6.650;2023-05-29T10:02:00;10.35;;;2.53;;
22024;SDS011;11176;51.448;6.650;2023-05-29T10:04:35;11.85;;;2.85;;
22024;SDS011;11176;51.448;6.650;2023-05-29T10:07:08;12.48;;;2.95;;
22024;SDS011;11176;51.448;6.650;2023-05-29T10:09:41;9.23;;;2.65;;
22024;SDS011;11176;51.448;6.650;2023-05-29T10:12:11;12.25;;;3.35;;
22024;SDS011;11176;51.448;6.650;2023-05-29T10:14:38;7.35;;;2.10;;
22024;SDS011;11176;51.448;6.650;2023-05-29T10:17:08;7.80;;;2.38;;
22024;SDS011;11176;51.448;6.650;2023-05-29T10:19:36;10.68;;;2.70;;
22024;SDS011;11176;51.448;6.650;2023-05-29T10:22:04;10.20;;;2.70;;
22024;SDS011;11176;51.448;6.650;2023-05-29T10:24:32;12.95;;;2.50;;
22024;SDS011;11176;51.448;6.650;2023-05-29T10:27:02;9.65;;;2.80;;
22024;SDS011;11176;51.448;6.650;2023-05-29T10:29:50;9.48;;;2.55;;
22024;SDS011;11176;51.448;6.650;2023-05-29T10:40:07;11.50;;;2.67;;
22024;SDS011;11176;51.448;6.650;2023-05-29T10:42:46;9.40;;;2.30;;
22024;SDS011;11176;51.448;6.650;2023-05-29T10:49:29;7.45;;;2.00;;
22024;SDS011;11176;51.448;6.650;2023-05-29T10:51:57;9.50;;;2.78;;
22024;SDS011;11176;51.448;6.650;2023-05-29T10:54:25;7.55;;;2.47;;
22024;SDS011;11176;51.448;6.650;2023-05-29T10:56:57;9.07;;;2.28;;
22024;SDS011;11176;51.448;6.650;2023-05-29T10:59:27;12.38;;;2.60;;
22024;SDS011;11176;51.448;6.650;2023-05-29T11:01:55;7.88;;;2.45;;
22024;SDS011;11176;51.448;6.650;2023-05-29T11:06:52;10.25;;;2.65;;
22024;SDS011;11176;51.448;6.650;2023-05-29T11:09:33;14.05;;;2.80;;
22024;SDS011;11176;51.448;6.650;2023-05-29T11:15:10;8.35;;;2.90;;
22024;SDS011;11176;51.448;6.650;2023-05-29T11:20:16;9.57;;;3.20;;
22024;SDS011;11176;51.448;6.650;2023-05-29T11:23:06;10.10;;;2.95;;
22024;SDS011;11176;51.448;6.650;2023-05-29T11:25:36;8.63;;;2.50;;
22024;SDS011;11176;51.448;6.650;2023-05-29T11:28:04;8.02;;;2.45;;
22024;SDS011;11176;51.448;6.650;2023-05-29T11:30:42;6.40;;;2.40;;
22024;SDS011;11176;51.448;6.650;2023-05-29T11:33:25;8.90;;;2.53;;
22024;SDS011;11176;51.448;6.650;2023-05-29T11:35:55;7.05;;;2.10;;
22024;SDS011;11176;51.448;6.650;2023-05-29T11:38:24;7.72;;;2.35;;
22024;SDS011;11176;51.448;6.650;2023-05-29T11:40:55;12.05;;;2.85;;
22024;SDS011;11176;51.448;6.650;2023-05-29T11:43:24;7.55;;;2.40;;
22024;SDS011;11176;51.448;6.650;2023-05-29T11:45:51;7.32;;;2.10;;
22024;SDS011;11176;51.448;6.650;2023-05-29T11:48:17;7.05;;;2.05;;
22024;SDS011;11176;51.448;6.650;2023-05-29T11:50:44;6.68;;;2.30;;
22024;SDS011;11176;51.448;6.650;2023-05-29T11:53:11;9.90;;;2.88;;
22024;SDS011;11176;51.448;6.650;2023-05-29T11:55:38;5.20;;;2.17;;
22024;SDS011;11176;51.448;6.650;2023-05-29T11:58:05;7.15;;;2.20;;
22024;SDS011;11176;51.448;6.650;2023-05-29T12:00:32;7.20;;;2.40;;
22024;SDS011;11176;51.448;6.650;2023-05-29T12:03:00;8.40;;;2.30;;
22024;SDS011;11176;51.448;6.650;2023-05-29T12:05:31;6.72;;;2.15;;
22024;SDS011;11176;51.448;6.650;2023-05-29T12:07:58;6.03;;;2.00;;
22024;SDS011;11176;51.448;6.650;2023-05-29T12:10:28;7.47;;;2.25;;
22024;SDS011;11176;51.448;6.650;2023-05-29T12:12:59;5.78;;;1.90;;
22024;SDS011;11176;51.448;6.650;2023-05-29T12:15:27;6.38;;;2.22;;
22024;SDS011;11176;51.448;6.650;2023-05-29T12:17:54;7.63;;;2.53;;
22024;SDS011;11176;51.448;6.650;2023-05-29T12:20:22;7.32;;;2.03;;
22024;SDS011;11176;51.448;6.650;2023-05-29T12:22:53;6.30;;;2.40;;
22024;SDS011;11176;51.448;6.650;2023-05-29T12:25:27;5.20;;;2.28;;
22024;SDS011;11176;51.448;6.650;2023-05-29T12:27:57;5.88;;;2.35;;
22024;SDS011;11176;51.448;6.650;2023-05-29T12:30:24;9.70;;;2.35;;
22024;SDS011;11176;51.448;6.650;2023-05-29T12:32:59;7.90;;;2.17;;
22024;SDS011;11176;51.448;6.650;2023-05-29T12:35:28;7.50;;;1.88;;
22024;SDS011;11176;51.448;6.650;2023-05-29T12:37:59;8.88;;;2.17;;
22024;SDS011;11176;51.448;6.650;2023-05-29T12:40:29;7.65;;;2.20;;
22024;SDS011;11176;51.448;6.650;2023-05-29T12:42:58;5.95;;;1.80;;
22024;SDS011;11176;51.448;6.650;2023-05-29T12:45:27;7.60;;;2.10;;
22024;SDS011;11176;51.448;6.650;2023-05-29T12:47:55;6.97;;;2.05;;
22024;SDS011;11176;51.448;6.650;2023-05-29T12:52:54;7.68;;;2.47;;
22024;SDS011;11176;51.448;6.650;2023-05-29T12:55:22;7.78;;;2.00;;
22024;SDS011;11176;51.448;6.650;2023-05-29T12:57:49;9.50;;;2.22;;
22024;SDS011;11176;51.448;6.650;2023-05-29T13:00:15;8.60;;;2.08;;
22024;SDS011;11176;51.448;6.650;2023-05-29T13:02:44;7.65;;;2.20;;
22024;SDS011;11176;51.448;6.650;2023-05-29T13:05:11;5.57;;;2.28;;
22024;SDS011;11176;51.448;6.650;2023-05-29T13:07:38;4.00;;;1.88;;
22024;SDS011;11176;51.448;6.650;2023-05-29T13:10:05;4.95;;;1.77;;
22024;SDS011;11176;51.448;6.650;2023-05-29T13:12:32;7.03;;;2.53;;
22024;SDS011;11176;51.448;6.650;2023-05-29T13:14:59;6.22;;;2.38;;
22024;SDS011;11176;51.448;6.650;2023-05-29T13:17:25;5.97;;;2.20;;
22024;SDS011;11176;51.448;6.650;2023-05-29T13:19:52;5.93;;;2.17;;
22024;SDS011;11176;51.448;6.650;2023-05-29T13:22:18;6.15;;;2.25;;
22024;SDS011;11176;51.448;6.650;2023-05-29T13:24:45;4.95;;;1.60;;
22024;SDS011;11176;51.448;6.650;2023-05-29T13:27:12;6.20;;;1.90;;
22024;SDS011;11176;51.448;6.650;2023-05-29T13:29:42;6.90;;;2.20;;
22024;SDS011;11176;51.448;6.650;2023-05-29T13:32:09;8.07;;;2.10;;
22024;SDS011;11176;51.448;6.650;2023-05-29T13:34:36;6.93;;;2.42;;
22024;SDS011;11176;51.448;6.650;2023-05-29T13:37:02;7.25;;;2.28;;
22024;SDS011;11176;51.448;6.650;2023-05-29T13:39:29;6.25;;;2.10;;
22024;SDS011;11176;51.448;6.650;2023-05-29T13:41:56;7.55;;;2.05;;
22024;SDS011;11176;51.448;6.650;2023-05-29T13:44:22;6.88;;;2.22;;
22024;SDS011;11176;51.448;6.650;2023-05-29T13:46:49;6.32;;;2.03;;
22024;SDS011;11176;51.448;6.650;2023-05-29T13:49:17;6.43;;;2.20;;
22024;SDS011;11176;51.448;6.650;2023-05-29T13:51:43;7.40;;;2.42;;
22024;SDS011;11176;51.448;6.650;2023-05-29T13:54:12;7.65;;;2.00;;
22024;SDS011;11176;51.448;6.650;2023-05-29T13:56:40;5.70;;;2.15;;
22024;SDS011;11176;51.448;6.650;2023-05-29T13:59:06;7.55;;;2.10;;
22024;SDS011;11176;51.448;6.650;2023-05-29T14:01:33;6.82;;;2.30;;
22024;SDS011;11176;51.448;6.650;2023-05-29T14:03:59;7.65;;;2.30;;
22024;SDS011;11176;51.448;6.650;2023-05-29T14:06:26;7.05;;;2.35;;
22024;SDS011;11176;51.448;6.650;2023-05-29T14:08:53;7.18;;;2.22;;
22024;SDS011;11176;51.448;6.650;2023-05-29T14:11:20;6.00;;;2.50;;
22024;SDS011;11176;51.448;6.650;2023-05-29T14:13:46;7.38;;;2.83;;
22024;SDS011;11176;51.448;6.650;2023-05-29T14:16:13;6.68;;;2.80;;
22024;SDS011;11176;51.448;6.650;2023-05-29T14:18:41;8.13;;;2.53;;
22024;SDS011;11176;51.448;6.650;2023-05-29T14:21:08;7.43;;;2.20;;
22024;SDS011;11176;51.448;6.650;2023-05-29T14:23:34;6.20;;;2.55;;
22024;SDS011;11176;51.448;6.650;2023-05-29T14:26:01;5.93;;;2.22;;
22024;SDS011;11176;51.448;6.650;2023-05-29T14:28:28;8.75;;;2.30;;
22024;SDS011;11176;51.448;6.650;2023-05-29T14:30:54;6.72;;;2.38;;
22024;SDS011;11176;51.448;6.650;2023-05-29T14:33:21;7.30;;;2.38;;
22024;SDS011;11176;51.448;6.650;2023-05-29T14:35:47;7.88;;;2.15;;
22024;SDS011;11176;51.448;6.650;2023-05-29T14:38:13;6.70;;;2.05;;
22024;SDS011;11176;51.448;6.650;2023-05-29T14:40:40;7.78;;;2.30;;
22024;SDS011;11176;51.448;6.650;2023-05-29T14:43:07;8.52;;;2.38;;
22024;SDS011;11176;51.448;6.650;2023-05-29T14:45:34;5.43;;;1.92;;
22024;SDS011;11176;51.448;6.650;2023-05-29T14:48:00;7.80;;;2.33;;
22024;SDS011;11176;51.448;6.650;2023-05-29T14:50:28;7.57;;;2.30;;
22024;SDS011;11176;51.448;6.650;2023-05-29T14:52:54;5.47;;;2.08;;
22024;SDS011;11176;51.448;6.650;2023-05-29T14:55:21;5.55;;;1.83;;
22024;SDS011;11176;51.448;6.650;2023-05-29T14:57:47;5.78;;;1.98;;
22024;SDS011;11176;51.448;6.650;2023-05-29T15:00:14;6.25;;;2.88;;
22024;SDS011;11176;51.448;6.650;2023-05-29T15:02:43;6.85;;;3.30;;
22024;SDS011;11176;51.448;6.650;2023-05-29T15:05:09;6.72;;;3.00;;
22024;SDS011;11176;51.448;6.650;2023-05-29T15:07:36;7.90;;;2.60;;
22024;SDS011;11176;51.448;6.650;2023-05-29T15:10:03;7.93;;;2.70;;
22024;SDS011;11176;51.448;6.650;2023-05-29T15:12:30;7.00;;;2.42;;
22024;SDS011;11176;51.448;6.650;2023-05-29T15:14:58;6.18;;;2.30;;
22024;SDS011;11176;51.448;6.650;2023-05-29T15:17:24;6.40;;;2.00;;
22024;SDS011;11176;51.448;6.650;2023-05-29T15:19:51;5.97;;;2.03;;
22024;SDS011;11176;51.448;6.650;2023-05-29T15:22:18;4.63;;;2.05;;
22024;SDS011;11176;51.448;6.650;2023-05-29T15:24:45;8.98;;;2.55;;